Rina Amoretti — IBRR — position and weather

sailwx.info

Track history (hours):
 
Tides and Currents Weather Stations Pressure Air Temp Water Temp Dewpoint Dewpoint Depression Visibility Wind Speed Wind Dir Waves Ship Positions

Rina Amoretti

Last reported at 2014-Aug-30 11:18 UTC. Time now 2014-Aug-30 12:29 UTC.
Position N 40°50' E 014°18'.

Length 120 m; draft 7.3 m.

Type: Ship (hazmat cat A). MMSI: 247197000.

Date/timePositionNaut miles runAvg speedWind from/ knotsBaromVisibWave heightAir tempDewpointWater temp
2014-Aug-30 11:18N 40°50' E 014°18'8 0.2
2014-Aug-28 14:32N 40°42' E 014°15'1413.0
2014-Aug-28 13:28N 40°28' E 014°10'1313.8
2014-Aug-28 12:32N 40°17' E 014°19'5513.8
2014-Aug-28 08:31N 39°29' E 014°54'7313.6
2014-Aug-28 03:09N 38°25' E 015°39'1011.6
2014-Aug-28 02:15N 38°14' E 015°38'1011.8
2014-Aug-28 01:23N 38°05' E 015°35'62 1.3
2014-Aug-26 01:10N 38°13' E 014°17'813.2
2014-Aug-26 00:33N 38°12' E 014°07'1313.1
2014-Aug-25 23:33N 38°11' E 013°50'1313.0
2014-Aug-25 22:33N 38°10' E 013°34'7 6.6
2014-Aug-25 21:32N 38°06' E 013°26'0 0.0
2014-Aug-25 20:32N 38°06' E 013°26'0 0.0
2014-Aug-25 19:32N 38°06' E 013°26'0 0.0
2014-Aug-25 18:32N 38°06' E 013°26'0 0.0
2014-Aug-25 17:29N 38°06' E 013°26'0 0.0
2014-Aug-25 16:32N 38°06' E 013°26'0 0.0
2014-Aug-25 15:32N 38°06' E 013°26'0 0.0
2014-Aug-25 14:32N 38°06' E 013°26'0 0.0
2014-Aug-25 13:32N 38°06' E 013°26'0 0.0
2014-Aug-25 12:32N 38°06' E 013°26'0 0.0
2014-Aug-25 11:32N 38°06' E 013°26'0 0.0
2014-Aug-25 10:32N 38°06' E 013°26'0 0.0
2014-Aug-25 09:32N 38°06' E 013°26'0 0.0
2014-Aug-25 08:32N 38°06' E 013°26'0 0.0
2014-Aug-25 07:32N 38°06' E 013°26'0 0.0
2014-Aug-25 06:32N 38°06' E 013°26'1 0.9
2014-Aug-25 05:33N 38°06' E 013°27'1 0.9
2014-Aug-25 04:33N 38°07' E 013°26'0 0.0
2014-Aug-25 03:33N 38°07' E 013°26'0 0.0
2014-Aug-25 02:33N 38°07' E 013°26'0 0.0
2014-Aug-25 01:33N 38°07' E 013°26'0 0.0
2014-Aug-25 00:33N 38°07' E 013°26'0 0.0
2014-Aug-24 23:33N 38°07' E 013°26'0 0.0
2014-Aug-24 22:33N 38°07' E 013°26'0 0.0
2014-Aug-24 21:29N 38°07' E 013°26'0 0.0
2014-Aug-24 20:32N 38°07' E 013°26'0 0.0
2014-Aug-24 19:32N 38°07' E 013°26'0 0.0
2014-Aug-24 18:26N 38°07' E 013°26'0 0.0
2014-Aug-24 17:32N 38°07' E 013°26'0 0.0
2014-Aug-24 16:32N 38°07' E 013°26'0 0.0
2014-Aug-24 15:32N 38°07' E 013°26'0 0.0
2014-Aug-24 14:32N 38°07' E 013°26'0 0.0
2014-Aug-24 13:32N 38°07' E 013°26'0 0.0
2014-Aug-24 12:32N 38°07' E 013°26'0 0.0
2014-Aug-24 11:32N 38°07' E 013°26'1 1.0
2014-Aug-24 10:32N 38°06' E 013°26'0 0.1
2014-Aug-24 09:32N 38°06' E 013°26'1 1.4
2014-Aug-24 08:33N 38°06' E 013°28'0 0.2
2014-Aug-24 07:33N 38°07' E 013°28'1 0.7
2014-Aug-24 06:33N 38°07' E 013°28'4 3.7
2014-Aug-24 05:33N 38°09' E 013°32'1313.0
2014-Aug-24 04:33N 38°11' E 013°49'1413.5
2014-Aug-24 03:33N 38°12' E 014°06'5713.4
2014-Aug-23 23:17N 38°19' E 015°19'  
2014-Aug-21 14:08N 40°50' E 014°18'2 0.1
2014-Aug-20 21:23N 40°48' E 014°20'0 0.0
2014-Aug-20 14:08N 40°48' E 014°20'0 0.1
2014-Aug-20 11:31N 40°48' E 014°19'  
Track history (hours):
 
Tides and Currents Weather Stations Pressure Air Temp Water Temp Dewpoint Dewpoint Depression Visibility Wind Speed Wind Dir Waves Ship Positions

Rina Amoretti

Last reported at 2014-Aug-30 11:18 UTC. Time now 2014-Aug-30 12:29 UTC.
Position N 40°50' E 014°18'.

Length 120 m; draft 7.3 m.

Type: Ship (hazmat cat A). MMSI: 247197000.

Date/timePositionNaut miles runAvg speedWind from/ knotsBaromVisibWave heightAir tempDewpointWater temp
2014-Aug-30 11:18N 40°50' E 014°18'8 0.2
2014-Aug-28 14:32N 40°42' E 014°15'1413.0
2014-Aug-28 13:28N 40°28' E 014°10'1313.8
2014-Aug-28 12:32N 40°17' E 014°19'5513.8
2014-Aug-28 08:31N 39°29' E 014°54'7313.6
2014-Aug-28 03:09N 38°25' E 015°39'1011.6
2014-Aug-28 02:15N 38°14' E 015°38'1011.8
2014-Aug-28 01:23N 38°05' E 015°35'62 1.3
2014-Aug-26 01:10N 38°13' E 014°17'813.2
2014-Aug-26 00:33N 38°12' E 014°07'1313.1
2014-Aug-25 23:33N 38°11' E 013°50'1313.0
2014-Aug-25 22:33N 38°10' E 013°34'7 6.6
2014-Aug-25 21:32N 38°06' E 013°26'0 0.0
2014-Aug-25 20:32N 38°06' E 013°26'0 0.0
2014-Aug-25 19:32N 38°06' E 013°26'0 0.0
2014-Aug-25 18:32N 38°06' E 013°26'0 0.0
2014-Aug-25 17:29N 38°06' E 013°26'0 0.0
2014-Aug-25 16:32N 38°06' E 013°26'0 0.0
2014-Aug-25 15:32N 38°06' E 013°26'0 0.0
2014-Aug-25 14:32N 38°06' E 013°26'0 0.0
2014-Aug-25 13:32N 38°06' E 013°26'0 0.0
2014-Aug-25 12:32N 38°06' E 013°26'0 0.0
2014-Aug-25 11:32N 38°06' E 013°26'0 0.0
2014-Aug-25 10:32N 38°06' E 013°26'0 0.0
2014-Aug-25 09:32N 38°06' E 013°26'0 0.0
2014-Aug-25 08:32N 38°06' E 013°26'0 0.0
2014-Aug-25 07:32N 38°06' E 013°26'0 0.0
2014-Aug-25 06:32N 38°06' E 013°26'1 0.9
2014-Aug-25 05:33N 38°06' E 013°27'1 0.9
2014-Aug-25 04:33N 38°07' E 013°26'0 0.0
2014-Aug-25 03:33N 38°07' E 013°26'0 0.0
2014-Aug-25 02:33N 38°07' E 013°26'0 0.0
2014-Aug-25 01:33N 38°07' E 013°26'0 0.0
2014-Aug-25 00:33N 38°07' E 013°26'0 0.0
2014-Aug-24 23:33N 38°07' E 013°26'0 0.0
2014-Aug-24 22:33N 38°07' E 013°26'0 0.0
2014-Aug-24 21:29N 38°07' E 013°26'0 0.0
2014-Aug-24 20:32N 38°07' E 013°26'0 0.0
2014-Aug-24 19:32N 38°07' E 013°26'0 0.0
2014-Aug-24 18:26N 38°07' E 013°26'0 0.0
2014-Aug-24 17:32N 38°07' E 013°26'0 0.0
2014-Aug-24 16:32N 38°07' E 013°26'0 0.0
2014-Aug-24 15:32N 38°07' E 013°26'0 0.0
2014-Aug-24 14:32N 38°07' E 013°26'0 0.0
2014-Aug-24 13:32N 38°07' E 013°26'0 0.0
2014-Aug-24 12:32N 38°07' E 013°26'0 0.0
2014-Aug-24 11:32N 38°07' E 013°26'1 1.0
2014-Aug-24 10:32N 38°06' E 013°26'0 0.1
2014-Aug-24 09:32N 38°06' E 013°26'1 1.4
2014-Aug-24 08:33N 38°06' E 013°28'0 0.2
2014-Aug-24 07:33N 38°07' E 013°28'1 0.7
2014-Aug-24 06:33N 38°07' E 013°28'4 3.7
2014-Aug-24 05:33N 38°09' E 013°32'1313.0
2014-Aug-24 04:33N 38°11' E 013°49'1413.5
2014-Aug-24 03:33N 38°12' E 014°06'5713.4
2014-Aug-23 23:17N 38°19' E 015°19'  
2014-Aug-21 14:08N 40°50' E 014°18'2 0.1
2014-Aug-20 21:23N 40°48' E 014°20'0 0.0
2014-Aug-20 14:08N 40°48' E 014°20'0 0.1
2014-Aug-20 11:31N 40°48' E 014°19'  

Dump ship's entire track history